Time;durP1;ratioP1;P1;durP2;ratioP2;P2;SDS_P1;SDS_P2;PMS_P1;PMS_P2;Temp;Humidity;BMP_temperature;BMP_pressure;BME280_temperature;BME280_humidity;BME280_pressure;Samples;Min_cycle;Max_cycle;Signal;HPM_P1;HPM_P2
2021/12/24 00:01:05;;;;;;;14.63;10.20;;;;;;;;;;10406708;28;20026;-51
2021/12/24 00:06:09;;;;;;;19.30;10.63;;;;;;;;;;10415994;28;20353;-52
2021/12/24 00:11:09;;;;;;;17.27;10.40;;;;;;;;;;10403320;28;20457;-55
2021/12/24 00:36:53;;;;;;;13.63;10.13;;;;;;;;;;10385431;28;20038;-54
2021/12/24 00:41:53;;;;;;;15.90;9.90;;;;;;;;;;10379712;28;20033;-57
2021/12/24 00:46:53;;;;;;;15.37;9.93;;;;;;;;;;10390809;28;20459;-57
2021/12/24 00:57:13;;;;;;;;;;;;;;;;;;10406292;28;20034;-57
2021/12/24 01:02:13;;;;;;;14.43;9.10;;;;;;;;;;10387048;28;19917;-56
2021/12/24 01:07:14;;;;;;;13.25;10.13;;;;;;;;;;10398000;28;20370;-57
2021/12/24 01:12:14;;;;;;;14.88;9.70;;;;;;;;;;10387379;28;20029;-57
2021/12/24 01:17:31;;;;;;;17.38;10.18;;;;;;;;;;10399941;28;20045;-57
2021/12/24 01:38:55;;;;;;;23.02;10.15;;;;;;;;;;10399934;28;20412;-54
2021/12/24 01:43:45;;;;;;;15.35;9.30;;;;;;;;;;10379097;28;20049;-57
2021/12/24 01:48:46;;;;;;;12.10;8.95;;;;;;;;;;10383419;28;20084;-55
2021/12/24 01:53:46;;;;;;;12.73;9.53;;;;;;;;;;10385930;28;20028;-54
2021/12/24 01:58:47;;;;;;;12.13;8.87;;;;;;;;;;10391253;28;21169;-56
2021/12/24 02:03:47;;;;;;;16.00;9.23;;;;;;;;;;10371267;28;20595;-51
2021/12/24 02:08:47;;;;;;;12.88;9.25;;;;;;;;;;10378171;28;20475;-51
2021/12/24 02:13:48;;;;;;;12.80;9.13;;;;;;;;;;10385961;28;20029;-55
2021/12/24 02:29:26;;;;;;;14.52;9.57;;;;;;;;;;10397525;28;20048;-56
2021/12/24 02:34:27;;;;;;;13.93;9.80;;;;;;;;;;10389924;28;20033;-55
2021/12/24 02:39:27;;;;;;;14.00;8.77;;;;;;;;;;10384714;28;20985;-54
2021/12/24 02:44:27;;;;;;;12.83;9.10;;;;;;;;;;10392183;28;20384;-54
2021/12/24 02:54:46;;;;;;;14.82;9.95;;;;;;;;;;10392023;28;20110;-51
2021/12/24 02:59:58;;;;;;;10.97;9.23;;;;;;;;;;10382562;28;20021;-53
2021/12/24 03:04:59;;;;;;;13.25;9.15;;;;;;;;;;10377404;28;21028;-52
2021/12/24 03:10:00;;;;;;;16.70;9.45;;;;;;;;;;10377213;28;20139;-56
2021/12/24 03:15:00;;;;;;;14.80;9.30;;;;;;;;;;10383404;28;20029;-56
2021/12/24 03:20:07;;;;;;;12.48;8.93;;;;;;;;;;10379668;28;20025;-56
2021/12/24 03:25:08;;;;;;;15.15;8.98;;;;;;;;;;10379947;28;20460;-59
2021/12/24 03:30:09;;;;;;;16.08;9.30;;;;;;;;;;10379020;28;20068;-54
2021/12/24 03:35:09;;;;;;;13.15;8.50;;;;;;;;;;10379860;28;20018;-58
2021/12/24 03:40:10;;;;;;;11.82;8.90;;;;;;;;;;10385220;28;20082;-57
2021/12/24 03:56:04;;;;;;;14.27;8.77;;;;;;;;;;10385127;28;20477;-59
2021/12/24 04:01:04;;;;;;;13.07;9.27;;;;;;;;;;10392497;28;20064;-59
2021/12/24 04:06:05;;;;;;;11.70;9.00;;;;;;;;;;10382583;28;20038;-59
2021/12/24 04:11:05;;;;;;;14.25;9.27;;;;;;;;;;10400912;28;20530;-54
2021/12/24 04:16:06;;;;;;;12.05;8.73;;;;;;;;;;10390150;28;20466;-52
2021/12/24 04:26:25;;;;;;;12.32;8.60;;;;;;;;;;10382304;28;20045;-59
2021/12/24 04:31:36;;;;;;;12.90;9.27;;;;;;;;;;10388641;28;20030;-56
2021/12/24 05:12:50;;;;;;;11.57;8.98;;;;;;;;;;10424632;28;20025;-58
2021/12/24 05:22:59;;;;;;;11.23;8.55;;;;;;;;;;10372959;28;20490;-59
2021/12/24 05:27:59;;;;;;;10.80;7.97;;;;;;;;;;10373035;28;20109;-58
2021/12/24 05:33:00;;;;;;;11.40;8.33;;;;;;;;;;10373147;28;20467;-56
2021/12/24 05:38:00;;;;;;;11.73;8.07;;;;;;;;;;10372283;28;21020;-59
2021/12/24 05:43:00;;;;;;;11.03;8.17;;;;;;;;;;10385110;28;20493;-59
2021/12/24 05:48:01;;;;;;;12.70;8.10;;;;;;;;;;10371839;28;20339;-58
2021/12/24 05:53:02;;;;;;;11.82;8.70;;;;;;;;;;10371632;28;20072;-58
2021/12/24 05:58:07;;;;;;;12.38;9.10;;;;;;;;;;10385267;28;20487;-59
2021/12/24 06:03:08;;;;;;;11.30;8.50;;;;;;;;;;10396719;28;20034;-59
2021/12/24 06:08:08;;;;;;;12.00;8.40;;;;;;;;;;10410722;28;20033;-59
2021/12/24 06:13:09;;;;;;;11.60;9.15;;;;;;;;;;10386172;28;20477;-56
2021/12/24 06:18:13;;;;;;;11.05;8.43;;;;;;;;;;10404601;28;20025;-59
2021/12/24 06:23:14;;;;;;;10.90;8.05;;;;;;;;;;10390291;28;20512;-59
2021/12/24 06:28:14;;;;;;;11.00;8.35;;;;;;;;;;10370429;28;20121;-58
2021/12/24 06:33:15;;;;;;;14.40;8.88;;;;;;;;;;10381939;28;20437;-59
2021/12/24 06:38:15;;;;;;;12.27;8.32;;;;;;;;;;10419468;28;20029;-58
2021/12/24 06:43:16;;;;;;;9.40;7.10;;;;;;;;;;10429976;28;20499;-57
2021/12/24 06:48:17;;;;;;;12.25;8.02;;;;;;;;;;10415990;28;20458;-59
2021/12/24 06:53:17;;;;;;;12.13;7.80;;;;;;;;;;10398235;28;20025;-58
2021/12/24 06:58:18;;;;;;;11.45;7.93;;;;;;;;;;10450061;28;20388;-57
2021/12/24 07:03:19;;;;;;;9.15;7.43;;;;;;;;;;10407975;28;20059;-57
2021/12/24 07:08:19;;;;;;;9.20;7.53;;;;;;;;;;10377663;28;20030;-57
2021/12/24 07:13:19;;;;;;;10.87;7.27;;;;;;;;;;10386077;28;20034;-57
2021/12/24 07:18:20;;;;;;;18.20;10.67;;;;;;;;;;10394161;28;20994;-56
2021/12/24 07:23:21;;;;;;;21.52;11.15;;;;;;;;;;10400485;28;20054;-54
2021/12/24 07:28:21;;;;;;;25.00;11.43;;;;;;;;;;10405740;28;20056;-55
2021/12/24 07:33:22;;;;;;;19.75;11.23;;;;;;;;;;10404149;28;20914;-52
2021/12/24 07:38:22;;;;;;;15.88;11.02;;;;;;;;;;10414449;28;20030;-53
2021/12/24 07:43:23;;;;;;;20.63;9.63;;;;;;;;;;10396159;28;20396;-56
2021/12/24 07:48:28;;;;;;;15.03;10.33;;;;;;;;;;10422971;28;20037;-50
2021/12/24 07:53:28;;;;;;;18.52;11.15;;;;;;;;;;10419087;28;20466;-52
2021/12/24 07:58:29;;;;;;;18.35;10.52;;;;;;;;;;10401981;28;20025;-51
2021/12/24 08:03:29;;;;;;;18.00;10.23;;;;;;;;;;10392989;28;20048;-54
2021/12/24 08:08:29;;;;;;;16.17;10.60;;;;;;;;;;10394762;28;21052;-56
2021/12/24 08:13:30;;;;;;;19.37;10.50;;;;;;;;;;10405638;28;20507;-55
2021/12/24 08:18:30;;;;;;;24.42;10.05;;;;;;;;;;10403422;28;20469;-51
2021/12/24 08:23:31;;;;;;;14.52;9.80;;;;;;;;;;10408834;28;20053;-55
2021/12/24 08:28:31;;;;;;;24.30;10.60;;;;;;;;;;10413437;28;20021;-56
2021/12/24 08:33:34;;;;;;;15.27;9.77;;;;;;;;;;10411575;28;21039;-52
2021/12/24 08:38:34;;;;;;;17.65;9.18;;;;;;;;;;10419084;28;20476;-49
2021/12/24 08:43:35;;;;;;;14.63;9.82;;;;;;;;;;10410126;28;20041;-53
2021/12/24 08:48:35;;;;;;;16.77;10.20;;;;;;;;;;10409692;28;20026;-53
2021/12/24 08:53:36;;;;;;;13.73;9.50;;;;;;;;;;10412525;28;20484;-53
2021/12/24 08:58:37;;;;;;;15.80;9.87;;;;;;;;;;10402666;28;20366;-53
2021/12/24 09:03:37;;;;;;;17.45;9.65;;;;;;;;;;10404618;28;20486;-56
2021/12/24 09:08:42;;;;;;;17.75;10.20;;;;;;;;;;10411284;28;20444;-49
2021/12/24 09:13:43;;;;;;;16.95;9.32;;;;;;;;;;10388635;28;20550;-55
2021/12/24 09:18:44;;;;;;;14.52;8.95;;;;;;;;;;10372139;28;20034;-51
2021/12/24 09:23:47;;;;;;;14.07;9.45;;;;;;;;;;10384058;28;20046;-49
2021/12/24 09:28:48;;;;;;;13.60;9.25;;;;;;;;;;10405187;28;20022;-52
2021/12/24 09:33:49;;;;;;;16.88;9.93;;;;;;;;;;10409340;28;20385;-54
2021/12/24 09:38:50;;;;;;;18.98;9.52;;;;;;;;;;10386841;28;20053;-55
2021/12/24 09:43:56;;;;;;;15.57;9.70;;;;;;;;;;10398562;28;20025;-56
2021/12/24 09:48:57;;;;;;;17.90;9.80;;;;;;;;;;10409749;28;20585;-53
2021/12/24 09:53:57;;;;;;;17.02;9.30;;;;;;;;;;10398028;28;20037;-56
2021/12/24 09:58:58;;;;;;;15.77;9.43;;;;;;;;;;10406312;28;20388;-54
2021/12/24 10:04:28;;;;;;;17.17;9.97;;;;;;;;;;10408639;28;20619;-53
2021/12/24 10:09:41;;;;;;;15.25;8.93;;;;;;;;;;10403352;28;20041;-53
2021/12/24 10:14:47;;;;;;;14.88;8.95;;;;;;;;;;10405449;28;20029;-50
2021/12/24 10:19:53;;;;;;;13.40;8.82;;;;;;;;;;10405391;28;20029;-56
2021/12/24 10:25:11;;;;;;;13.48;8.77;;;;;;;;;;10401730;28;20045;-51
2021/12/24 10:30:18;;;;;;;14.80;8.15;;;;;;;;;;10408256;28;20030;-51
2021/12/24 10:35:24;;;;;;;16.35;8.10;;;;;;;;;;10399515;28;20445;-49
2021/12/24 10:40:29;;;;;;;14.75;9.00;;;;;;;;;;10407282;28;20493;-51
2021/12/24 10:45:32;;;;;;;13.15;9.05;;;;;;;;;;10406791;28;20504;-48
2021/12/24 10:50:38;;;;;;;16.95;9.05;;;;;;;;;;10399841;28;20485;-54
2021/12/24 10:55:48;;;;;;;12.65;7.97;;;;;;;;;;10408815;28;20029;-49
2021/12/24 11:00:52;;;;;;;11.82;8.13;;;;;;;;;;10404312;28;20024;-54
2021/12/24 11:06:03;;;;;;;13.77;8.57;;;;;;;;;;10397856;28;20060;-55
2021/12/24 11:11:06;;;;;;;12.60;8.32;;;;;;;;;;10404849;28;20018;-55
2021/12/24 11:16:09;;;;;;;13.55;8.70;;;;;;;;;;10402064;28;20040;-55
2021/12/24 11:21:19;;;;;;;12.18;8.10;;;;;;;;;;10396197;28;20025;-56
2021/12/24 11:26:24;;;;;;;14.40;7.68;;;;;;;;;;10398842;28;20511;-49
2021/12/24 11:31:32;;;;;;;13.02;8.00;;;;;;;;;;10393619;28;20105;-54
2021/12/24 11:36:32;;;;;;;16.85;8.00;;;;;;;;;;10411066;28;20021;-50
2021/12/24 11:41:33;;;;;;;9.97;7.63;;;;;;;;;;10392529;28;20025;-48
2021/12/24 11:46:37;;;;;;;12.15;7.35;;;;;;;;;;10412329;28;20470;-48
2021/12/24 11:51:40;;;;;;;13.07;7.32;;;;;;;;;;10389531;28;20054;-48
2021/12/24 11:56:46;;;;;;;9.43;7.43;;;;;;;;;;10384390;28;20116;-49
2021/12/24 12:01:46;;;;;;;11.77;7.35;;;;;;;;;;10413279;28;20029;-49
2021/12/24 12:06:47;;;;;;;10.73;7.40;;;;;;;;;;10411738;28;20024;-51
2021/12/24 12:11:57;;;;;;;11.32;7.28;;;;;;;;;;10398031;28;20479;-51
2021/12/24 12:17:00;;;;;;;14.50;8.13;;;;;;;;;;10413049;28;20473;-50
2021/12/24 12:22:15;;;;;;;15.70;7.60;;;;;;;;;;10411860;28;20041;-49
2021/12/24 12:27:38;;;;;;;11.98;8.32;;;;;;;;;;10398974;28;20041;-50
2021/12/24 12:32:39;;;;;;;15.48;8.52;;;;;;;;;;10414368;28;20480;-50
2021/12/24 12:37:53;;;;;;;19.27;8.20;;;;;;;;;;10411538;28;20045;-51
2021/12/24 12:42:57;;;;;;;14.20;8.38;;;;;;;;;;10413734;28;20045;-48
2021/12/24 12:48:04;;;;;;;15.63;8.43;;;;;;;;;;10418796;28;20036;-49
2021/12/24 12:53:24;;;;;;;16.67;8.23;;;;;;;;;;10410282;28;20033;-49
2021/12/24 12:58:26;;;;;;;11.32;7.65;;;;;;;;;;10399312;28;20041;-48
2021/12/24 13:03:26;;;;;;;14.02;7.38;;;;;;;;;;10411050;28;20216;-51
2021/12/24 13:08:29;;;;;;;12.23;7.90;;;;;;;;;;10425408;28;20583;-48
2021/12/24 13:13:55;;;;;;;12.15;7.72;;;;;;;;;;10417939;28;20459;-50
2021/12/24 13:19:57;;;;;;;13.25;7.47;;;;;;;;;;10407070;28;20087;-48
2021/12/24 13:24:19;;;;;;;9.15;7.05;;;;;;;;;;10405316;28;20069;-50
2021/12/24 13:29:23;;;;;;;12.50;7.63;;;;;;;;;;10412447;28;20349;-48
2021/12/24 13:34:24;;;;;;;12.88;7.22;;;;;;;;;;10410776;28;20473;-52
2021/12/24 13:39:25;;;;;;;11.02;7.82;;;;;;;;;;10405939;28;20396;-50
2021/12/24 13:44:27;;;;;;;12.63;7.03;;;;;;;;;;10411353;28;20045;-54
2021/12/24 13:54:44;;;;;;;15.30;7.30;;;;;;;;;;10407817;28;20034;-57
2021/12/24 13:59:50;;;;;;;10.40;6.60;;;;;;;;;;10402150;28;20025;-55
2021/12/24 14:05:01;;;;;;;10.63;6.88;;;;;;;;;;10411067;28;20541;-49
2021/12/24 14:10:01;;;;;;;12.88;7.43;;;;;;;;;;10409813;28;20021;-54
2021/12/24 14:15:10;;;;;;;12.80;6.45;;;;;;;;;;10394846;28;20029;-56
2021/12/24 14:20:15;;;;;;;;;;;;;;;;;;10404790;28;20057;-53
2021/12/24 14:25:16;;;;;;;9.65;6.40;;;;;;;;;;10381756;28;19917;-50
2021/12/24 14:30:19;;;;;;;9.02;6.05;;;;;;;;;;10374061;28;20041;-49
2021/12/24 14:35:25;;;;;;;10.65;5.75;;;;;;;;;;10386122;28;20029;-51
2021/12/24 14:40:28;;;;;;;10.40;6.43;;;;;;;;;;10381114;28;20504;-49
2021/12/24 14:45:37;;;;;;;12.68;6.95;;;;;;;;;;10403873;28;20036;-54
2021/12/24 14:51:00;;;;;;;9.00;6.10;;;;;;;;;;10402639;28;20025;-56
2021/12/24 14:56:09;;;;;;;11.48;5.72;;;;;;;;;;10411566;28;20029;-50
2021/12/24 15:01:09;;;;;;;;;;;;;;;;;;10402717;28;20033;-50
2021/12/24 15:06:18;;;;;;;12.38;6.60;;;;;;;;;;10400550;28;19917;-51
2021/12/24 15:11:18;;;;;;;16.30;7.88;;;;;;;;;;10395702;28;20427;-50
2021/12/24 15:16:20;;;;;;;14.82;7.68;;;;;;;;;;10403047;28;20038;-48
2021/12/24 15:21:23;;;;;;;17.15;8.10;;;;;;;;;;10399053;28;20137;-51
2021/12/24 15:26:26;;;;;;;17.65;7.53;;;;;;;;;;10406168;28;20145;-50
2021/12/24 15:31:28;;;;;;;12.90;7.85;;;;;;;;;;10404637;28;20056;-58
2021/12/24 15:36:29;;;;;;;14.48;7.63;;;;;;;;;;10400544;28;20473;-55
2021/12/24 15:41:30;;;;;;;11.98;7.30;;;;;;;;;;10401322;28;20121;-52
2021/12/24 15:46:30;;;;;;;11.52;7.68;;;;;;;;;;10390773;28;20066;-55
2021/12/24 15:51:31;;;;;;;15.57;7.72;;;;;;;;;;10393898;28;20029;-56
2021/12/24 15:56:31;;;;;;;14.07;8.20;;;;;;;;;;10403557;28;20025;-50
2021/12/24 16:01:32;;;;;;;13.10;7.40;;;;;;;;;;10405776;28;20036;-49
2021/12/24 16:06:32;;;;;;;11.32;6.70;;;;;;;;;;10404948;28;20459;-53
2021/12/24 16:11:33;;;;;;;12.07;7.60;;;;;;;;;;10391585;28;20068;-53
2021/12/24 16:16:34;;;;;;;16.75;8.88;;;;;;;;;;10399839;28;20507;-52
2021/12/24 16:21:34;;;;;;;16.77;8.80;;;;;;;;;;10403148;28;20048;-52
2021/12/24 16:26:35;;;;;;;17.73;9.27;;;;;;;;;;10398928;28;20564;-50
2021/12/24 16:31:35;;;;;;;21.20;9.35;;;;;;;;;;10394808;28;20087;-48
2021/12/24 16:36:36;;;;;;;22.98;8.98;;;;;;;;;;10399804;28;20088;-50
2021/12/24 16:41:41;;;;;;;21.97;8.87;;;;;;;;;;10403079;28;20033;-49
2021/12/24 16:46:42;;;;;;;17.52;8.35;;;;;;;;;;10409136;28;20509;-56
2021/12/24 16:51:46;;;;;;;15.70;8.47;;;;;;;;;;10412884;28;20461;-49
2021/12/24 16:56:47;;;;;;;19.42;9.27;;;;;;;;;;10409859;28;20471;-49
2021/12/24 17:01:48;;;;;;;15.40;9.15;;;;;;;;;;10395362;28;20057;-54
2021/12/24 17:06:48;;;;;;;17.13;8.93;;;;;;;;;;10406936;28;20032;-57
2021/12/24 17:11:49;;;;;;;16.13;8.93;;;;;;;;;;10413357;28;20495;-52
2021/12/24 17:16:49;;;;;;;16.15;8.57;;;;;;;;;;10400944;28;20038;-51
2021/12/24 17:21:49;;;;;;;13.03;8.50;;;;;;;;;;10403523;28;20428;-56
2021/12/24 17:26:50;;;;;;;18.50;8.80;;;;;;;;;;10402804;28;20490;-57
2021/12/24 17:31:52;;;;;;;13.27;7.40;;;;;;;;;;10401070;28;20044;-50
2021/12/24 17:36:52;;;;;;;24.55;7.68;;;;;;;;;;10411996;28;20127;-51
2021/12/24 17:41:53;;;;;;;20.33;8.38;;;;;;;;;;10411684;28;20425;-58
2021/12/24 17:46:54;;;;;;;10.60;7.10;;;;;;;;;;10408955;28;20040;-57
2021/12/24 17:51:57;;;;;;;11.23;7.10;;;;;;;;;;10414511;28;20029;-54
2021/12/24 17:56:57;;;;;;;15.90;7.65;;;;;;;;;;10401265;28;20918;-50
2021/12/24 18:01:57;;;;;;;13.48;7.07;;;;;;;;;;10410823;28;20063;-52
2021/12/24 18:07:00;;;;;;;13.90;7.40;;;;;;;;;;10405813;28;20029;-54
2021/12/24 18:12:02;;;;;;;11.38;7.40;;;;;;;;;;10417009;28;21020;-58
2021/12/24 18:17:03;;;;;;;18.48;7.78;;;;;;;;;;10411174;28;20137;-56
2021/12/24 18:22:04;;;;;;;19.13;7.72;;;;;;;;;;10397002;28;20044;-57
2021/12/24 18:27:05;;;;;;;12.40;7.35;;;;;;;;;;10406525;28;20040;-56
2021/12/24 18:32:06;;;;;;;16.67;8.00;;;;;;;;;;10400275;28;20025;-58
2021/12/24 18:37:06;;;;;;;23.00;9.75;;;;;;;;;;10405957;28;20030;-58
2021/12/24 18:42:07;;;;;;;26.73;8.97;;;;;;;;;;10402678;28;20021;-57
2021/12/24 18:47:10;;;;;;;29.25;9.50;;;;;;;;;;10405939;28;20475;-59
2021/12/24 18:52:11;;;;;;;29.27;8.48;;;;;;;;;;10389470;28;20468;-59
2021/12/24 18:57:12;;;;;;;21.83;8.80;;;;;;;;;;10399120;28;20014;-58
2021/12/24 19:02:13;;;;;;;23.75;8.82;;;;;;;;;;10394473;28;20471;-59
2021/12/24 19:07:13;;;;;;;15.00;8.63;;;;;;;;;;10407394;28;20330;-58
2021/12/24 19:12:14;;;;;;;15.97;8.30;;;;;;;;;;10407438;28;20635;-59
2021/12/24 19:17:15;;;;;;;18.48;8.25;;;;;;;;;;10409203;28;20481;-58
2021/12/24 19:22:15;;;;;;;17.30;8.20;;;;;;;;;;10408068;28;20050;-56
2021/12/24 19:27:16;;;;;;;14.55;7.85;;;;;;;;;;10408648;28;20045;-56
2021/12/24 19:32:18;;;;;;;23.80;8.75;;;;;;;;;;10397160;28;20489;-58
2021/12/24 19:37:18;;;;;;;13.07;8.32;;;;;;;;;;10398322;28;20025;-57
2021/12/24 19:42:19;;;;;;;14.70;8.73;;;;;;;;;;10403999;28;20042;-56
2021/12/24 19:47:19;;;;;;;11.83;7.67;;;;;;;;;;10387513;28;20041;-56
2021/12/24 19:52:19;;;;;;;12.95;7.90;;;;;;;;;;10405464;28;20463;-58
2021/12/24 19:57:20;;;;;;;18.02;8.15;;;;;;;;;;10408579;28;20037;-57
2021/12/24 20:02:20;;;;;;;17.43;8.13;;;;;;;;;;10406625;28;20029;-57
2021/12/24 20:07:21;;;;;;;12.98;7.65;;;;;;;;;;10407838;28;20466;-56
2021/12/24 20:12:21;;;;;;;10.97;7.50;;;;;;;;;;10394534;28;20124;-56
2021/12/24 20:17:22;;;;;;;15.90;8.13;;;;;;;;;;10410316;28;20779;-57
2021/12/24 20:22:22;;;;;;;16.38;8.18;;;;;;;;;;10422011;28;20476;-57
2021/12/24 20:27:23;;;;;;;12.63;7.93;;;;;;;;;;10417836;28;20121;-58
2021/12/24 20:32:23;;;;;;;13.20;8.13;;;;;;;;;;10411963;28;20973;-57
2021/12/24 20:37:24;;;;;;;13.13;7.90;;;;;;;;;;10415617;28;20033;-57
2021/12/24 20:42:25;;;;;;;12.13;8.05;;;;;;;;;;10411228;28;20029;-58
2021/12/24 20:47:27;;;;;;;11.15;7.93;;;;;;;;;;10408924;28;20033;-58
2021/12/24 20:52:27;;;;;;;15.55;8.40;;;;;;;;;;10413213;28;20043;-57
2021/12/24 20:57:28;;;;;;;12.93;7.82;;;;;;;;;;10409753;28;20033;-58
2021/12/24 21:02:30;;;;;;;11.10;7.73;;;;;;;;;;10401579;28;20021;-58
2021/12/24 21:07:30;;;;;;;10.50;7.13;;;;;;;;;;10414054;28;20471;-57
2021/12/24 21:12:31;;;;;;;12.10;7.43;;;;;;;;;;10405599;28;20033;-55
2021/12/24 21:17:31;;;;;;;15.48;8.40;;;;;;;;;;10404349;28;20045;-58
2021/12/24 21:22:32;;;;;;;9.87;7.20;;;;;;;;;;10390454;28;20045;-58
2021/12/24 21:27:32;;;;;;;9.85;6.90;;;;;;;;;;10407225;28;21032;-58
2021/12/24 21:32:33;;;;;;;15.47;7.40;;;;;;;;;;10408065;28;20030;-58
2021/12/24 21:37:34;;;;;;;10.38;7.43;;;;;;;;;;10410695;28;20961;-59
2021/12/24 21:42:34;;;;;;;12.73;7.60;;;;;;;;;;10406738;28;20029;-59
2021/12/24 21:47:37;;;;;;;10.13;7.20;;;;;;;;;;10409984;28;20235;-59
2021/12/24 21:52:37;;;;;;;11.68;7.63;;;;;;;;;;10401830;28;20029;-59
2021/12/24 21:57:38;;;;;;;9.32;7.00;;;;;;;;;;10408949;28;20017;-59
2021/12/24 22:02:39;;;;;;;12.30;7.70;;;;;;;;;;10410980;28;20387;-59
2021/12/24 22:13:00;;;;;;;11.25;7.78;;;;;;;;;;10410756;28;20030;-57
2021/12/24 22:18:00;;;;;;;10.83;7.13;;;;;;;;;;10399347;28;20029;-56
2021/12/24 22:23:01;;;;;;;12.13;7.75;;;;;;;;;;10411278;28;20584;-56
2021/12/24 22:28:01;;;;;;;10.37;7.37;;;;;;;;;;10401064;28;20494;-57
2021/12/24 22:33:02;;;;;;;12.57;7.50;;;;;;;;;;10412616;28;20466;-57
2021/12/24 22:38:04;;;;;;;14.45;7.68;;;;;;;;;;10410694;28;20026;-59
2021/12/24 22:43:05;;;;;;;9.25;7.07;;;;;;;;;;10401262;28;20499;-58
2021/12/24 22:48:07;;;;;;;12.25;7.57;;;;;;;;;;10396074;28;20034;-55
2021/12/24 22:53:08;;;;;;;11.98;8.15;;;;;;;;;;10408279;28;20105;-57
2021/12/24 22:58:12;;;;;;;11.97;7.53;;;;;;;;;;10407035;28;20120;-58
2021/12/24 23:03:20;;;;;;;10.60;7.45;;;;;;;;;;10401709;28;20466;-56
2021/12/24 23:08:25;;;;;;;10.88;8.07;;;;;;;;;;10397634;28;20041;-57
2021/12/24 23:13:29;;;;;;;12.40;8.70;;;;;;;;;;10404052;28;20036;-58
2021/12/24 23:18:29;;;;;;;14.30;8.65;;;;;;;;;;10405040;28;20061;-58
2021/12/24 23:23:33;;;;;;;12.00;8.10;;;;;;;;;;10408115;28;20541;-54
2021/12/24 23:28:36;;;;;;;13.82;8.82;;;;;;;;;;10401695;28;20631;-56
2021/12/24 23:33:37;;;;;;;13.40;8.50;;;;;;;;;;10407028;28;20039;-57
2021/12/24 23:38:37;;;;;;;12.73;8.45;;;;;;;;;;10404634;28;20033;-58
2021/12/24 23:43:46;;;;;;;11.93;9.17;;;;;;;;;;10407930;28;20021;-56
2021/12/24 23:48:47;;;;;;;14.07;8.85;;;;;;;;;;10404441;28;20476;-59
2021/12/24 23:53:47;;;;;;;14.10;9.20;;;;;;;;;;10411735;28;20034;-57
2021/12/24 23:58:48;;;;;;;12.32;9.02;;;;;;;;;;10406623;28;20821;-58
